createdAt,value
2022-11-16T00:00:08.449Z,9.75
2022-11-16T00:00:28.521Z,9.72
2022-11-16T00:00:48.578Z,9.71
2022-11-16T00:01:08.653Z,9.71
2022-11-16T00:01:28.748Z,9.69
2022-11-16T00:01:48.841Z,9.71
2022-11-16T00:02:08.932Z,9.68
2022-11-16T00:02:28.946Z,9.68
2022-11-16T00:02:48.958Z,9.66
2022-11-16T00:03:09.027Z,9.69
2022-11-16T00:03:29.189Z,9.68
2022-11-16T00:03:49.147Z,9.65
2022-11-16T00:04:09.233Z,9.63
2022-11-16T00:04:29.286Z,9.66
2022-11-16T00:04:49.350Z,9.63
2022-11-16T00:05:09.433Z,9.66
2022-11-16T00:05:29.490Z,9.63
2022-11-16T00:05:49.538Z,9.63
2022-11-16T00:06:09.600Z,9.62
2022-11-16T00:06:29.669Z,9.62
2022-11-16T00:06:49.745Z,9.62
2022-11-16T00:07:09.841Z,9.62
2022-11-16T00:07:29.879Z,9.61
2022-11-16T00:07:49.875Z,9.61
2022-11-16T00:08:09.958Z,9.59
2022-11-16T00:08:30.363Z,9.59
2022-11-16T00:08:50.088Z,9.59
2022-11-16T00:09:10.127Z,9.59
2022-11-16T00:09:30.184Z,9.59
2022-11-16T00:09:50.247Z,9.59
2022-11-16T00:10:10.320Z,9.58
2022-11-16T00:10:30.369Z,9.59
2022-11-16T00:10:50.471Z,9.58
2022-11-16T00:11:10.547Z,9.58
2022-11-16T00:11:30.601Z,9.58
2022-11-16T00:11:50.655Z,9.57
2022-11-16T00:12:10.743Z,9.57
2022-11-16T00:12:30.801Z,9.57
2022-11-16T00:12:50.842Z,9.57
2022-11-16T00:13:10.892Z,9.55
2022-11-16T00:13:31.044Z,9.57
2022-11-16T00:13:51.002Z,9.55
2022-11-16T00:14:11.073Z,9.55
2022-11-16T00:14:31.125Z,9.54
2022-11-16T00:14:51.163Z,9.54
2022-11-16T00:15:11.213Z,9.55
2022-11-16T00:15:31.275Z,9.51
2022-11-16T00:15:51.321Z,9.52
2022-11-16T00:16:11.401Z,9.51
2022-11-16T00:16:31.456Z,9.5
2022-11-16T00:16:51.522Z,9.48
2022-11-16T00:17:11.603Z,9.48
2022-11-16T00:17:31.654Z,9.48
2022-11-16T00:17:51.773Z,9.48
2022-11-16T00:18:11.827Z,9.48
2022-11-16T00:18:32.377Z,9.45
2022-11-16T00:18:51.959Z,9.48
2022-11-16T00:19:12.059Z,9.48
2022-11-16T00:19:32.151Z,9.48
2022-11-16T00:19:52.217Z,9.47
2022-11-16T00:20:12.299Z,9.48
2022-11-16T00:20:32.354Z,9.48
2022-11-16T00:20:52.394Z,9.48
2022-11-16T00:21:12.455Z,9.5
2022-11-16T00:21:32.500Z,9.48
2022-11-16T00:21:52.593Z,9.48
2022-11-16T00:22:12.665Z,9.48
2022-11-16T00:22:32.754Z,9.5
2022-11-16T00:22:52.839Z,9.51
2022-11-16T00:23:12.919Z,9.48
2022-11-16T00:23:33.079Z,9.47
2022-11-16T00:23:53.047Z,9.47
2022-11-16T00:24:13.144Z,9.45
2022-11-16T00:24:33.216Z,9.47
2022-11-16T00:24:53.281Z,9.48
2022-11-16T00:25:13.361Z,9.48
2022-11-16T00:25:33.400Z,9.45
2022-11-16T00:25:53.455Z,9.47
2022-11-16T00:26:13.532Z,9.47
2022-11-16T00:26:33.594Z,9.47
2022-11-16T00:26:53.645Z,9.45
2022-11-16T00:27:13.712Z,9.47
2022-11-16T00:27:33.782Z,9.5
2022-11-16T00:27:53.884Z,9.5
2022-11-16T00:28:13.942Z,9.5
2022-11-16T00:28:34.565Z,9.48
2022-11-16T00:28:54.076Z,9.48
2022-11-16T00:29:14.148Z,9.48
2022-11-16T00:29:34.217Z,9.5
2022-11-16T00:29:54.341Z,9.47
2022-11-16T00:30:14.418Z,9.5
2022-11-16T00:30:34.493Z,9.48
2022-11-16T00:30:54.586Z,9.5
2022-11-16T00:31:14.674Z,9.48
2022-11-16T00:31:34.732Z,9.48
2022-11-16T00:31:54.838Z,9.51
2022-11-16T00:32:14.896Z,9.5
2022-11-16T00:32:34.978Z,9.48
2022-11-16T00:32:55.050Z,9.5
2022-11-16T00:33:15.117Z,9.5
2022-11-16T00:33:35.335Z,9.47
2022-11-16T00:33:55.338Z,9.45
2022-11-16T00:34:15.410Z,9.47
2022-11-16T00:34:35.509Z,9.45
2022-11-16T00:34:55.611Z,9.42
2022-11-16T00:35:15.639Z,9.45
2022-11-16T00:35:35.734Z,9.44
2022-11-16T00:35:55.794Z,9.44
2022-11-16T00:36:15.859Z,9.45
2022-11-16T00:36:35.928Z,9.44
2022-11-16T00:36:56.054Z,9.42
2022-11-16T00:37:16.076Z,9.41
2022-11-16T00:37:36.159Z,9.38
2022-11-16T00:37:56.226Z,9.4
2022-11-16T00:38:16.290Z,9.4
2022-11-16T00:38:36.721Z,9.38
2022-11-16T00:38:56.409Z,9.41
2022-11-16T00:39:16.489Z,9.38
2022-11-16T00:39:36.554Z,9.35
2022-11-16T00:39:56.645Z,9.38
2022-11-16T00:40:16.706Z,9.37
2022-11-16T00:40:36.758Z,9.35
2022-11-16T00:40:56.813Z,9.37
2022-11-16T00:41:16.872Z,9.34
2022-11-16T00:41:36.928Z,9.31
2022-11-16T00:41:56.955Z,9.34
2022-11-16T00:42:17.046Z,9.31
2022-11-16T00:42:37.101Z,9.33
2022-11-16T00:42:57.167Z,9.34
2022-11-16T00:43:17.223Z,9.3
2022-11-16T00:43:37.399Z,9.33
2022-11-16T00:43:57.358Z,9.3
2022-11-16T00:44:17.405Z,9.31
2022-11-16T00:44:37.495Z,9.3
2022-11-16T00:44:57.571Z,9.3
2022-11-16T00:45:17.653Z,9.31
2022-11-16T00:45:37.712Z,9.3
2022-11-16T00:45:57.773Z,9.3
2022-11-16T00:46:17.845Z,9.27
2022-11-16T00:46:37.896Z,9.3
2022-11-16T00:46:57.990Z,9.29
2022-11-16T00:47:18.054Z,9.29
2022-11-16T00:47:38.122Z,9.31
2022-11-16T00:48:00.609Z,9.29
2022-11-16T00:48:18.247Z,9.27
2022-11-16T00:48:38.405Z,9.26
2022-11-16T00:48:58.375Z,9.29
2022-11-16T00:49:18.412Z,9.26
2022-11-16T00:49:38.513Z,9.27
2022-11-16T00:49:58.601Z,9.26
2022-11-16T00:50:18.671Z,9.26
2022-11-16T00:50:38.726Z,9.26
2022-11-16T00:50:58.791Z,9.27
2022-11-16T00:51:18.869Z,9.24
2022-11-16T00:51:38.926Z,9.24
2022-11-16T00:51:58.999Z,9.23
2022-11-16T00:52:19.027Z,9.26
2022-11-16T00:52:39.089Z,9.26
2022-11-16T00:52:59.141Z,9.26
2022-11-16T00:53:19.222Z,9.26
2022-11-16T00:53:39.506Z,9.24
2022-11-16T00:53:59.357Z,9.23
2022-11-16T00:54:19.446Z,9.24
2022-11-16T00:54:39.487Z,9.23
2022-11-16T00:54:59.558Z,9.21
2022-11-16T00:55:19.651Z,9.21
2022-11-16T00:55:39.724Z,9.21
2022-11-16T00:55:59.782Z,9.19
2022-11-16T00:56:19.840Z,9.19
2022-11-16T00:56:39.878Z,9.19
2022-11-16T00:56:59.973Z,9.2
2022-11-16T00:57:20.038Z,9.19
2022-11-16T00:57:40.111Z,9.19
2022-11-16T00:58:00.195Z,9.17
2022-11-16T00:58:20.251Z,9.2
2022-11-16T00:58:40.467Z,9.19
2022-11-16T00:59:00.390Z,9.19
2022-11-16T00:59:20.451Z,9.17
2022-11-16T00:59:40.500Z,9.2
2022-11-16T01:00:00.563Z,9.16
2022-11-16T01:00:20.635Z,9.19
2022-11-16T01:00:40.676Z,9.21
2022-11-16T01:01:00.836Z,9.17
2022-11-16T01:01:20.895Z,9.17
2022-11-16T01:01:41.009Z,9.16
2022-11-16T01:02:00.950Z,9.19
2022-11-16T01:02:20.989Z,9.2
2022-11-16T01:02:41.042Z,9.2
2022-11-16T01:03:01.085Z,9.19
2022-11-16T01:03:21.131Z,9.19
2022-11-16T01:03:41.313Z,9.2
2022-11-16T01:04:01.255Z,9.2
2022-11-16T01:04:21.348Z,9.2
2022-11-16T01:04:41.445Z,9.21
2022-11-16T01:05:01.515Z,9.2
2022-11-16T01:05:21.578Z,9.19
2022-11-16T01:05:41.640Z,9.21
2022-11-16T01:06:01.716Z,9.21
2022-11-16T01:06:21.798Z,9.2
2022-11-16T01:06:41.827Z,9.21
2022-11-16T01:07:01.966Z,9.2
2022-11-16T01:07:22.052Z,9.17
2022-11-16T01:07:42.047Z,9.2
2022-11-16T01:08:02.100Z,9.2
2022-11-16T01:08:22.167Z,9.21
2022-11-16T01:08:42.408Z,9.21
2022-11-16T01:09:02.307Z,9.21
2022-11-16T01:09:22.375Z,9.21
2022-11-16T01:09:42.430Z,9.21
2022-11-16T01:10:02.472Z,9.24
2022-11-16T01:10:22.582Z,9.23
2022-11-16T01:10:42.592Z,9.21
2022-11-16T01:11:02.682Z,9.21
2022-11-16T01:11:22.747Z,9.19
2022-11-16T01:11:42.830Z,9.2
2022-11-16T01:12:02.905Z,9.2
2022-11-16T01:12:22.961Z,9.21
2022-11-16T01:12:42.997Z,9.23
2022-11-16T01:13:03.064Z,9.23
2022-11-16T01:13:23.111Z,9.24
2022-11-16T01:13:43.297Z,9.23
2022-11-16T01:14:03.226Z,9.24
2022-11-16T01:14:23.307Z,9.23
2022-11-16T01:14:43.382Z,9.24
2022-11-16T01:15:03.456Z,9.23
2022-11-16T01:15:23.527Z,9.23
2022-11-16T01:15:43.592Z,9.24
2022-11-16T01:16:03.654Z,9.24
2022-11-16T01:16:23.714Z,9.24
2022-11-16T01:16:43.791Z,9.24
2022-11-16T01:17:03.863Z,9.24
2022-11-16T01:17:23.950Z,9.26
2022-11-16T01:17:43.997Z,9.27
2022-11-16T01:18:04.058Z,9.27
2022-11-16T01:18:24.126Z,9.26
2022-11-16T01:18:44.321Z,9.27
2022-11-16T01:19:04.264Z,9.29
2022-11-16T01:19:24.327Z,9.27
2022-11-16T01:19:44.388Z,9.3
2022-11-16T01:20:04.456Z,9.27
2022-11-16T01:20:24.542Z,9.29
2022-11-16T01:20:44.644Z,9.31
2022-11-16T01:21:04.689Z,9.3
2022-11-16T01:21:24.745Z,9.31
2022-11-16T01:21:44.829Z,9.31
2022-11-16T01:22:04.870Z,9.33
2022-11-16T01:22:24.957Z,9.33
2022-11-16T01:22:45.049Z,9.33
2022-11-16T01:23:05.083Z,9.35
2022-11-16T01:23:25.133Z,9.33
2022-11-16T01:23:45.384Z,9.31
2022-11-16T01:24:05.267Z,9.31
2022-11-16T01:24:25.321Z,9.31
2022-11-16T01:24:45.391Z,9.33
2022-11-16T01:25:05.445Z,9.33
2022-11-16T01:25:25.509Z,9.35
2022-11-16T01:25:45.584Z,9.33
2022-11-16T01:26:05.713Z,9.33
2022-11-16T01:26:25.694Z,9.34
2022-11-16T01:26:45.771Z,9.31
2022-11-16T01:27:05.814Z,9.31
2022-11-16T01:27:25.880Z,9.3
2022-11-16T01:27:45.944Z,9.29
2022-11-16T01:28:06.007Z,9.31
2022-11-16T01:28:26.065Z,9.29
2022-11-16T01:28:46.307Z,9.3
2022-11-16T01:29:06.159Z,9.3
2022-11-16T01:29:26.225Z,9.3
2022-11-16T01:29:46.302Z,9.3
2022-11-16T01:30:06.517Z,9.3
2022-11-16T01:30:26.484Z,9.31
2022-11-16T01:30:46.542Z,9.27
2022-11-16T01:31:06.610Z,9.3
2022-11-16T01:31:26.642Z,9.3
2022-11-16T01:31:46.689Z,9.29
2022-11-16T01:32:06.765Z,9.29
2022-11-16T01:32:26.841Z,9.3
2022-11-16T01:32:46.918Z,9.29
2022-11-16T01:33:07.007Z,9.29
2022-11-16T01:33:27.096Z,9.29
2022-11-16T01:33:47.384Z,9.27
2022-11-16T01:34:07.211Z,9.27
2022-11-16T01:34:27.288Z,9.26
2022-11-16T01:34:47.378Z,9.26
2022-11-16T01:35:07.491Z,9.26
2022-11-16T01:35:27.571Z,9.27
2022-11-16T01:35:47.638Z,9.26
2022-11-16T01:36:07.688Z,9.29
2022-11-16T01:36:27.760Z,9.23
2022-11-16T01:36:47.815Z,9.26
2022-11-16T01:37:07.866Z,9.24
2022-11-16T01:37:27.947Z,9.27
2022-11-16T01:37:48.011Z,9.23
2022-11-16T01:38:08.061Z,9.26
2022-11-16T01:38:29.981Z,9.23
2022-11-16T01:38:48.380Z,9.24
2022-11-16T01:39:08.258Z,9.23
2022-11-16T01:39:28.367Z,9.23
2022-11-16T01:39:48.408Z,9.21
2022-11-16T01:40:08.473Z,9.24
2022-11-16T01:40:28.533Z,9.23
2022-11-16T01:40:48.568Z,9.21
2022-11-16T01:41:08.666Z,9.21
2022-11-16T01:41:28.726Z,9.21
2022-11-16T01:41:48.773Z,9.2
2022-11-16T01:42:08.862Z,9.2
2022-11-16T01:42:28.922Z,9.2
2022-11-16T01:42:49.024Z,9.2
2022-11-16T01:43:09.070Z,9.2
2022-11-16T01:43:29.123Z,9.19
2022-11-16T01:43:49.380Z,9.19
2022-11-16T01:44:09.228Z,9.16
2022-11-16T01:44:29.297Z,9.19
2022-11-16T01:44:49.353Z,9.17
2022-11-16T01:45:09.392Z,9.19
2022-11-16T01:45:29.483Z,9.17
2022-11-16T01:45:49.545Z,9.17
2022-11-16T01:46:09.585Z,9.17
2022-11-16T01:46:29.674Z,9.17
2022-11-16T01:46:49.734Z,9.14
2022-11-16T01:47:09.758Z,9.17
2022-11-16T01:47:29.820Z,9.13
2022-11-16T01:47:49.974Z,9.14
2022-11-16T01:48:09.980Z,9.13
2022-11-16T01:48:30.095Z,9.16
2022-11-16T01:48:50.270Z,9.14
2022-11-16T01:49:10.123Z,9.13
2022-11-16T01:49:30.185Z,9.13
2022-11-16T01:49:50.247Z,9.11
2022-11-16T01:50:10.300Z,9.14
2022-11-16T01:50:30.378Z,9.11
2022-11-16T01:50:50.473Z,9.11
2022-11-16T01:51:10.532Z,9.11
2022-11-16T01:51:30.608Z,9.11
2022-11-16T01:51:50.699Z,9.13
2022-11-16T01:52:10.757Z,9.1
2022-11-16T01:52:30.806Z,9.1
2022-11-16T01:52:50.896Z,9.11
2022-11-16T01:53:10.959Z,9.11
2022-11-16T01:53:31.022Z,9.09
2022-11-16T01:53:51.239Z,9.09
2022-11-16T01:54:11.111Z,9.09
2022-11-16T01:54:31.208Z,9.1
2022-11-16T01:54:51.238Z,9.09
2022-11-16T01:55:11.280Z,9.09
2022-11-16T01:55:31.389Z,9.07
2022-11-16T01:55:51.458Z,9.07
2022-11-16T01:56:11.550Z,9.07
2022-11-16T01:56:31.602Z,9.07
2022-11-16T01:56:51.678Z,9.06
2022-11-16T01:57:11.772Z,9.07
2022-11-16T01:57:31.824Z,9.07
2022-11-16T01:57:51.875Z,9.06
2022-11-16T01:58:11.941Z,9.06
2022-11-16T01:58:32.378Z,9.06
2022-11-16T01:58:52.299Z,9.06
2022-11-16T01:59:12.142Z,9.04
2022-11-16T01:59:32.200Z,9.06
2022-11-16T01:59:52.258Z,9.06
2022-11-16T02:00:12.361Z,9.04
2022-11-16T02:00:32.409Z,9.03
2022-11-16T02:00:52.589Z,9.04
2022-11-16T02:01:12.645Z,9.04
2022-11-16T02:01:32.722Z,9.04
2022-11-16T02:01:52.738Z,9.04
2022-11-16T02:02:12.798Z,9.04
2022-11-16T02:02:32.858Z,9.04
2022-11-16T02:02:52.919Z,9.03
2022-11-16T02:03:13.011Z,9.03
2022-11-16T02:03:33.073Z,9.03
2022-11-16T02:03:53.232Z,9.02
2022-11-16T02:04:13.232Z,9.03
2022-11-16T02:04:33.295Z,9.02
2022-11-16T02:04:53.394Z,9.02
2022-11-16T02:05:13.457Z,9.03
2022-11-16T02:05:33.520Z,9.02
2022-11-16T02:05:53.582Z,9.02
2022-11-16T02:06:13.639Z,9.03
2022-11-16T02:06:33.696Z,9.02
2022-11-16T02:06:53.819Z,9.02
2022-11-16T02:07:13.916Z,9.02
2022-11-16T02:07:33.980Z,9.03
2022-11-16T02:07:53.946Z,9.02
2022-11-16T02:08:14.019Z,8.99
2022-11-16T02:08:34.390Z,9.02
2022-11-16T02:08:54.331Z,9.02
2022-11-16T02:09:14.306Z,9.03
2022-11-16T02:09:34.324Z,9
2022-11-16T02:09:54.399Z,9
2022-11-16T02:10:14.503Z,9
2022-11-16T02:10:34.563Z,9
2022-11-16T02:10:54.668Z,9
2022-11-16T02:11:14.748Z,9
2022-11-16T02:11:34.823Z,9
2022-11-16T02:11:54.914Z,8.99
2022-11-16T02:12:14.998Z,9
2022-11-16T02:12:35.068Z,9
2022-11-16T02:12:55.144Z,9
2022-11-16T02:13:15.212Z,9
2022-11-16T02:13:35.297Z,8.99
2022-11-16T02:13:55.542Z,8.99
2022-11-16T02:14:15.450Z,8.99
2022-11-16T02:14:35.528Z,9
2022-11-16T02:14:55.680Z,8.96
2022-11-16T02:15:15.672Z,8.96
2022-11-16T02:15:35.725Z,9
2022-11-16T02:15:55.776Z,8.99
2022-11-16T02:16:15.858Z,8.98
2022-11-16T02:16:35.949Z,8.99
2022-11-16T02:16:56.022Z,8.98
2022-11-16T02:17:16.106Z,8.99
2022-11-16T02:17:36.172Z,8.99
2022-11-16T02:17:56.258Z,8.98
2022-11-16T02:18:16.365Z,8.98
2022-11-16T02:18:36.727Z,8.98
2022-11-16T02:18:56.596Z,9.02
2022-11-16T02:19:16.600Z,9
2022-11-16T02:19:36.619Z,9.02
2022-11-16T02:19:56.700Z,9
2022-11-16T02:20:16.816Z,8.99
2022-11-16T02:20:36.850Z,8.99
2022-11-16T02:20:56.940Z,9
2022-11-16T02:21:17.012Z,9
2022-11-16T02:21:37.084Z,9.02
2022-11-16T02:21:57.173Z,9
2022-11-16T02:22:17.266Z,9
2022-11-16T02:22:37.347Z,9
2022-11-16T02:22:57.445Z,9
2022-11-16T02:23:17.510Z,8.99
2022-11-16T02:23:37.622Z,9
2022-11-16T02:23:57.881Z,9
2022-11-16T02:24:17.740Z,8.99
2022-11-16T02:24:37.820Z,9
2022-11-16T02:24:57.887Z,9
2022-11-16T02:25:17.976Z,8.99
2022-11-16T02:25:38.043Z,8.99
2022-11-16T02:25:58.157Z,9
2022-11-16T02:26:18.219Z,9
2022-11-16T02:26:38.289Z,9
2022-11-16T02:26:58.368Z,9
2022-11-16T02:27:18.434Z,9
2022-11-16T02:27:38.492Z,9.02
2022-11-16T02:27:58.561Z,9.03
2022-11-16T02:28:18.659Z,8.99
2022-11-16T02:28:38.725Z,9.02
2022-11-16T02:28:58.991Z,9.03
2022-11-16T02:29:18.830Z,9.03
2022-11-16T02:29:38.889Z,9.03
2022-11-16T02:29:58.963Z,9.04
2022-11-16T02:30:19.044Z,9.03
2022-11-16T02:30:39.105Z,9.06
2022-11-16T02:30:59.198Z,9.03
2022-11-16T02:31:19.259Z,9.03
2022-11-16T02:31:39.314Z,9.03
2022-11-16T02:31:59.383Z,9.03
2022-11-16T02:32:19.453Z,9.03
2022-11-16T02:32:39.521Z,9.03
2022-11-16T02:32:59.583Z,9.04
2022-11-16T02:33:19.654Z,9.04
2022-11-16T02:33:39.742Z,9.06
2022-11-16T02:34:00.053Z,9.04
2022-11-16T02:34:19.896Z,9.03
2022-11-16T02:34:39.983Z,9.04
2022-11-16T02:35:00.029Z,9.06
2022-11-16T02:35:20.106Z,9.04
2022-11-16T02:35:40.168Z,9.06
2022-11-16T02:36:00.242Z,9.06
2022-11-16T02:36:20.415Z,9.04
2022-11-16T02:36:40.370Z,9.06
2022-11-16T02:37:00.457Z,9.07
2022-11-16T02:37:20.534Z,9.06
2022-11-16T02:37:40.628Z,9.07
2022-11-16T02:38:00.732Z,9.07
2022-11-16T02:38:20.811Z,9.06
2022-11-16T02:38:40.864Z,9.06
2022-11-16T02:39:01.102Z,9.04
2022-11-16T02:39:20.960Z,9.07
2022-11-16T02:39:41.058Z,9.04
2022-11-16T02:40:01.114Z,9.03
2022-11-16T02:40:21.194Z,9.04
2022-11-16T02:40:41.249Z,9.03
2022-11-16T02:41:01.324Z,9.04
2022-11-16T02:41:21.413Z,9.04
2022-11-16T02:41:41.497Z,9.06
2022-11-16T02:42:01.615Z,9.03
2022-11-16T02:42:21.689Z,9.03
2022-11-16T02:42:41.828Z,9.06
2022-11-16T02:43:01.824Z,9.04
2022-11-16T02:43:21.911Z,9.06
2022-11-16T02:43:41.986Z,9.06
2022-11-16T02:44:02.175Z,9.04
2022-11-16T02:44:22.114Z,9.07
2022-11-16T02:44:42.186Z,9.03
2022-11-16T02:45:02.211Z,9.07
2022-11-16T02:45:22.270Z,9.09
2022-11-16T02:45:42.352Z,9.04
2022-11-16T02:46:02.439Z,9.07
2022-11-16T02:46:22.530Z,9.09
2022-11-16T02:46:42.595Z,9.07
2022-11-16T02:47:02.651Z,9.06
2022-11-16T02:47:22.809Z,9.07
2022-11-16T02:47:42.804Z,9.06
2022-11-16T02:48:02.871Z,9.09
2022-11-16T02:48:22.963Z,9.07
2022-11-16T02:48:43.039Z,9.07
2022-11-16T02:49:03.227Z,9.09
2022-11-16T02:49:23.254Z,9.07
2022-11-16T02:49:43.253Z,9.07
2022-11-16T02:50:03.334Z,9.07
2022-11-16T02:50:23.401Z,9.07
2022-11-16T02:50:43.494Z,9.09
2022-11-16T02:51:03.600Z,9.07
2022-11-16T02:51:23.649Z,9.07
2022-11-16T02:51:43.732Z,9.09
2022-11-16T02:52:03.795Z,9.11
2022-11-16T02:52:23.869Z,9.09
2022-11-16T02:52:43.932Z,9.07
2022-11-16T02:53:03.999Z,9.1
2022-11-16T02:53:24.069Z,9.11
2022-11-16T02:53:44.166Z,9.09
2022-11-16T02:54:04.437Z,9.09
2022-11-16T02:54:24.272Z,9.1
2022-11-16T02:54:44.353Z,9.1
2022-11-16T02:55:04.409Z,9.1
2022-11-16T02:55:24.507Z,9.11
2022-11-16T02:55:44.572Z,9.11
2022-11-16T02:56:04.651Z,9.09
2022-11-16T02:56:24.699Z,9.1
2022-11-16T02:56:44.773Z,9.1
2022-11-16T02:57:04.847Z,9.11
2022-11-16T02:57:24.917Z,9.11
2022-11-16T02:57:44.994Z,9.1
2022-11-16T02:58:05.065Z,9.11
2022-11-16T02:58:25.120Z,9.13
2022-11-16T02:58:45.199Z,9.09
2022-11-16T02:59:05.474Z,9.1
2022-11-16T02:59:25.347Z,9.1
2022-11-16T02:59:45.391Z,9.09
2022-11-16T03:00:05.484Z,9.09
2022-11-16T03:00:25.603Z,9.1
2022-11-16T03:00:45.732Z,9.09
2022-11-16T03:01:05.862Z,9.1
2022-11-16T03:01:25.977Z,9.09
2022-11-16T03:01:45.918Z,9.09
2022-11-16T03:02:06.006Z,9.1
2022-11-16T03:02:26.061Z,9.1
2022-11-16T03:02:46.130Z,9.09
2022-11-16T03:03:06.260Z,9.1
2022-11-16T03:03:26.358Z,9.09
2022-11-16T03:03:46.427Z,9.09
2022-11-16T03:04:06.608Z,9.1
2022-11-16T03:04:26.556Z,9.1
2022-11-16T03:04:46.629Z,9.1
2022-11-16T03:05:06.692Z,9.07
2022-11-16T03:05:26.776Z,9.1
2022-11-16T03:05:46.843Z,9.07
2022-11-16T03:06:06.885Z,9.11
2022-11-16T03:06:26.927Z,9.1
2022-11-16T03:06:47.078Z,9.09
2022-11-16T03:07:07.102Z,9.11
2022-11-16T03:07:27.232Z,9.1
2022-11-16T03:07:47.241Z,9.1
2022-11-16T03:08:07.312Z,9.11
2022-11-16T03:08:27.444Z,9.1
2022-11-16T03:08:47.462Z,9.13
2022-11-16T03:09:07.658Z,9.1
2022-11-16T03:09:27.617Z,9.11
2022-11-16T03:09:47.685Z,9.1
2022-11-16T03:10:07.771Z,9.1
2022-11-16T03:10:27.830Z,9.07
2022-11-16T03:10:47.908Z,9.1
2022-11-16T03:11:07.980Z,9.1
2022-11-16T03:11:28.111Z,9.09
2022-11-16T03:11:48.150Z,9.1
2022-11-16T03:12:08.237Z,9.09
2022-11-16T03:12:28.311Z,9.09
2022-11-16T03:12:48.370Z,9.1
2022-11-16T03:13:08.474Z,9.11
2022-11-16T03:13:28.561Z,9.1
2022-11-16T03:13:48.626Z,9.1
2022-11-16T03:14:08.872Z,9.11
2022-11-16T03:14:28.835Z,9.07
2022-11-16T03:14:48.918Z,9.11
2022-11-16T03:15:09.012Z,9.09
2022-11-16T03:15:29.103Z,9.11
2022-11-16T03:15:49.201Z,9.1
2022-11-16T03:16:09.252Z,9.1
2022-11-16T03:16:29.340Z,9.09
2022-11-16T03:16:49.393Z,9.11
2022-11-16T03:17:09.497Z,9.06
2022-11-16T03:17:29.571Z,9.11
2022-11-16T03:17:49.621Z,9.11
2022-11-16T03:18:09.689Z,9.09
2022-11-16T03:18:29.744Z,9.1
2022-11-16T03:18:49.823Z,9.09
2022-11-16T03:19:10.007Z,9.09
2022-11-16T03:19:29.957Z,9.09
2022-11-16T03:19:50.021Z,9.1
2022-11-16T03:20:10.075Z,9.1
2022-11-16T03:20:30.141Z,9.09
2022-11-16T03:20:50.215Z,9.06
2022-11-16T03:21:10.273Z,9.07
2022-11-16T03:21:30.337Z,9.09
2022-11-16T03:21:50.391Z,9.07
2022-11-16T03:22:10.493Z,9.07
2022-11-16T03:22:30.570Z,9.09
2022-11-16T03:22:50.636Z,9.09
2022-11-16T03:23:10.699Z,9.07
2022-11-16T03:23:30.771Z,9.07
2022-11-16T03:23:50.812Z,9.09
2022-11-16T03:24:11.065Z,9.07
2022-11-16T03:24:30.936Z,9.06
2022-11-16T03:24:50.979Z,9.07
2022-11-16T03:25:11.053Z,9.06
2022-11-16T03:25:31.173Z,9.07
2022-11-16T03:25:51.182Z,9.06
2022-11-16T03:26:11.239Z,9.07
2022-11-16T03:26:31.304Z,9.07
2022-11-16T03:26:51.380Z,9.09
2022-11-16T03:27:11.414Z,9.09
2022-11-16T03:27:31.498Z,9.07
2022-11-16T03:27:51.587Z,9.09
2022-11-16T03:28:11.633Z,9.1
2022-11-16T03:28:32.024Z,9.04
2022-11-16T03:28:51.796Z,9.09
2022-11-16T03:29:12.013Z,9.07
2022-11-16T03:29:31.903Z,9.07
2022-11-16T03:29:51.964Z,9.06
2022-11-16T03:30:12.068Z,9.06
2022-11-16T03:30:32.136Z,9.07
2022-11-16T03:30:52.192Z,9.09
2022-11-16T03:31:12.258Z,9.06
2022-11-16T03:31:32.326Z,9.06
2022-11-16T03:31:52.408Z,9.07
2022-11-16T03:32:12.478Z,9.07
2022-11-16T03:32:32.552Z,9.07
2022-11-16T03:32:52.608Z,9.07
2022-11-16T03:33:12.645Z,9.07
2022-11-16T03:33:32.721Z,9.06
2022-11-16T03:33:52.784Z,9.06
2022-11-16T03:34:13.067Z,9.04
2022-11-16T03:34:32.945Z,9.07
2022-11-16T03:34:52.939Z,9.09
2022-11-16T03:35:13.009Z,9.06
2022-11-16T03:35:33.078Z,9.06
2022-11-16T03:35:53.122Z,9.07
2022-11-16T03:36:13.209Z,9.07
2022-11-16T03:36:33.282Z,9.06
2022-11-16T03:36:53.391Z,9.06
2022-11-16T03:37:13.457Z,9.09
2022-11-16T03:37:33.543Z,9.07
2022-11-16T03:37:53.604Z,9.06
2022-11-16T03:38:13.684Z,9.09
2022-11-16T03:38:34.135Z,9.06
2022-11-16T03:38:53.807Z,9.07
2022-11-16T03:39:14.220Z,9.09
2022-11-16T03:39:33.949Z,9.07
2022-11-16T03:39:54.043Z,9.07
2022-11-16T03:40:14.091Z,9.09
2022-11-16T03:40:34.171Z,9.09
2022-11-16T03:40:54.241Z,9.09
2022-11-16T03:41:14.294Z,9.1
2022-11-16T03:41:34.376Z,9.09
2022-11-16T03:41:54.406Z,9.1
2022-11-16T03:42:14.638Z,9.09
2022-11-16T03:42:34.540Z,9.11
2022-11-16T03:42:54.619Z,9.11
2022-11-16T03:43:14.713Z,9.11
2022-11-16T03:43:34.773Z,9.11
2022-11-16T03:43:54.823Z,9.13
2022-11-16T03:44:15.092Z,9.11
2022-11-16T03:44:34.992Z,9.11
2022-11-16T03:44:55.055Z,9.11
2022-11-16T03:45:15.196Z,9.11
2022-11-16T03:45:35.185Z,9.11
2022-11-16T03:45:55.230Z,9.14
2022-11-16T03:46:15.281Z,9.13
2022-11-16T03:46:35.363Z,9.13
2022-11-16T03:46:55.419Z,9.14
2022-11-16T03:47:15.485Z,9.16
2022-11-16T03:47:35.561Z,9.13
2022-11-16T03:47:55.644Z,9.13
2022-11-16T03:48:15.700Z,9.14
2022-11-16T03:48:36.236Z,9.16
2022-11-16T03:48:55.841Z,9.16
2022-11-16T03:49:16.013Z,9.17
2022-11-16T03:49:35.997Z,9.19
2022-11-16T03:49:56.061Z,9.19
2022-11-16T03:50:16.095Z,9.21
2022-11-16T03:50:36.188Z,9.2
2022-11-16T03:50:56.217Z,9.19
2022-11-16T03:51:16.288Z,9.19
2022-11-16T03:51:36.363Z,9.21
2022-11-16T03:51:56.429Z,9.21
2022-11-16T03:52:16.502Z,9.19
2022-11-16T03:52:36.571Z,9.21
2022-11-16T03:52:56.660Z,9.19
2022-11-16T03:53:16.753Z,9.2
2022-11-16T03:53:36.787Z,9.19
2022-11-16T03:53:56.878Z,9.21
2022-11-16T03:54:17.050Z,9.2
2022-11-16T03:54:37.022Z,9.17
2022-11-16T03:54:57.090Z,9.21
2022-11-16T03:55:17.170Z,9.17
2022-11-16T03:55:37.233Z,9.2
2022-11-16T03:55:57.336Z,9.21
2022-11-16T03:56:17.413Z,9.17
2022-11-16T03:56:37.484Z,9.19
2022-11-16T03:56:57.567Z,9.17
2022-11-16T03:57:17.647Z,9.17
2022-11-16T03:57:37.712Z,9.17
2022-11-16T03:57:57.814Z,9.16
2022-11-16T03:58:17.906Z,9.2
2022-11-16T03:58:37.963Z,9.17
2022-11-16T03:58:58.054Z,9.17
2022-11-16T03:59:18.241Z,9.16
2022-11-16T03:59:38.202Z,9.16
2022-11-16T03:59:58.282Z,9.17
2022-11-16T04:00:18.366Z,9.17
2022-11-16T04:00:38.468Z,9.14
2022-11-16T04:00:58.655Z,9.16
2022-11-16T04:01:18.608Z,9.17
2022-11-16T04:01:43.380Z,9.16
2022-11-16T04:01:58.717Z,9.16
2022-11-16T04:02:18.792Z,9.19
2022-11-16T04:02:38.890Z,9.16
2022-11-16T04:02:58.940Z,9.17
2022-11-16T04:03:19.005Z,9.17
2022-11-16T04:03:39.078Z,9.17
2022-11-16T04:03:59.132Z,9.14
2022-11-16T04:04:19.384Z,9.17
2022-11-16T04:04:39.289Z,9.19
2022-11-16T04:04:59.353Z,9.17
2022-11-16T04:05:19.409Z,9.17
2022-11-16T04:05:39.498Z,9.17
2022-11-16T04:05:59.547Z,9.17
2022-11-16T04:06:19.609Z,9.16
2022-11-16T04:06:39.678Z,9.16
2022-11-16T04:06:59.759Z,9.16
2022-11-16T04:07:19.855Z,9.16
2022-11-16T04:07:39.850Z,9.17
2022-11-16T04:07:59.929Z,9.17
2022-11-16T04:08:19.993Z,9.16
2022-11-16T04:08:40.043Z,9.17
2022-11-16T04:09:00.099Z,9.17
2022-11-16T04:09:20.309Z,9.19
2022-11-16T04:09:40.263Z,9.16
2022-11-16T04:10:00.328Z,9.2
2022-11-16T04:10:20.423Z,9.17
2022-11-16T04:10:40.496Z,9.2
2022-11-16T04:11:00.609Z,9.2
2022-11-16T04:11:20.648Z,9.2
2022-11-16T04:11:40.721Z,9.19
2022-11-16T04:12:00.764Z,9.17
2022-11-16T04:12:20.845Z,9.19
2022-11-16T04:12:40.900Z,9.2
2022-11-16T04:13:00.963Z,9.19
2022-11-16T04:13:21.024Z,9.19
2022-11-16T04:13:41.089Z,9.2
2022-11-16T04:14:04.149Z,9.2
2022-11-16T04:14:21.318Z,9.21
2022-11-16T04:14:41.247Z,9.23
2022-11-16T04:15:01.310Z,9.19
2022-11-16T04:15:21.422Z,9.23
2022-11-16T04:15:41.476Z,9.23
2022-11-16T04:16:01.520Z,9.21
2022-11-16T04:16:21.569Z,9.21
2022-11-16T04:16:41.638Z,9.24
2022-11-16T04:17:01.687Z,9.23
2022-11-16T04:17:21.763Z,9.2
2022-11-16T04:17:41.841Z,9.23
2022-11-16T04:18:01.923Z,9.24
2022-11-16T04:18:21.970Z,9.2
2022-11-16T04:18:42.071Z,9.21
2022-11-16T04:19:02.149Z,9.2
2022-11-16T04:19:22.321Z,9.21
2022-11-16T04:19:42.307Z,9.2
2022-11-16T04:20:02.424Z,9.24
2022-11-16T04:20:22.489Z,9.21
2022-11-16T04:20:42.549Z,9.19
2022-11-16T04:21:02.602Z,9.19
2022-11-16T04:21:22.695Z,9.21
2022-11-16T04:21:42.749Z,9.21
2022-11-16T04:22:02.818Z,9.2
2022-11-16T04:22:22.882Z,9.17
2022-11-16T04:22:42.949Z,9.2
2022-11-16T04:23:03.007Z,9.23
2022-11-16T04:23:23.083Z,9.21
2022-11-16T04:23:43.177Z,9.19
2022-11-16T04:24:03.277Z,9.2
2022-11-16T04:24:23.425Z,9.17
2022-11-16T04:24:43.425Z,9.17
2022-11-16T04:25:03.496Z,9.19
2022-11-16T04:25:23.549Z,9.17
2022-11-16T04:25:43.615Z,9.19
2022-11-16T04:26:03.698Z,9.2
2022-11-16T04:26:23.738Z,9.17
2022-11-16T04:26:43.792Z,9.19
2022-11-16T04:27:03.857Z,9.17
2022-11-16T04:27:23.930Z,9.19
2022-11-16T04:27:44.001Z,9.16
2022-11-16T04:28:04.054Z,9.17
2022-11-16T04:28:24.095Z,9.19
2022-11-16T04:28:44.170Z,9.16
2022-11-16T04:29:04.198Z,9.17
2022-11-16T04:29:24.379Z,9.17